sensor_id;sensor_type;location;lat;lon;timestamp;P1;durP1;ratioP1;P2;durP2;ratioP2
11187;SDS011;5650;52.700;7.306;2023-07-13T00:02:16;6.90;;;1.90;;
11187;SDS011;5650;52.700;7.306;2023-07-13T00:04:43;3.15;;;1.50;;
11187;SDS011;5650;52.700;7.306;2023-07-13T00:07:10;7.60;;;2.22;;
11187;SDS011;5650;52.700;7.306;2023-07-13T00:09:39;8.45;;;2.08;;
11187;SDS011;5650;52.700;7.306;2023-07-13T00:12:20;6.47;;;2.15;;
11187;SDS011;5650;52.700;7.306;2023-07-13T00:14:53;7.38;;;2.40;;
11187;SDS011;5650;52.700;7.306;2023-07-13T00:17:29;9.10;;;2.38;;
11187;SDS011;5650;52.700;7.306;2023-07-13T00:19:56;10.32;;;2.10;;
11187;SDS011;5650;52.700;7.306;2023-07-13T00:22:29;5.45;;;2.15;;
11187;SDS011;5650;52.700;7.306;2023-07-13T00:24:57;9.85;;;2.08;;
11187;SDS011;5650;52.700;7.306;2023-07-13T00:27:31;8.63;;;2.38;;
11187;SDS011;5650;52.700;7.306;2023-07-13T00:30:01;8.18;;;2.17;;
11187;SDS011;5650;52.700;7.306;2023-07-13T00:32:35;9.88;;;2.13;;
11187;SDS011;5650;52.700;7.306;2023-07-13T00:35:04;8.75;;;2.67;;
11187;SDS011;5650;52.700;7.306;2023-07-13T00:37:37;10.10;;;2.30;;
11187;SDS011;5650;52.700;7.306;2023-07-13T00:40:09;6.45;;;2.17;;
11187;SDS011;5650;52.700;7.306;2023-07-13T00:42:39;5.50;;;2.20;;
11187;SDS011;5650;52.700;7.306;2023-07-13T00:48:07;7.97;;;2.00;;
11187;SDS011;5650;52.700;7.306;2023-07-13T00:50:38;9.98;;;2.53;;
11187;SDS011;5650;52.700;7.306;2023-07-13T00:53:06;7.20;;;1.98;;
11187;SDS011;5650;52.700;7.306;2023-07-13T00:55:36;8.02;;;1.88;;
11187;SDS011;5650;52.700;7.306;2023-07-13T00:58:06;10.50;;;2.65;;
11187;SDS011;5650;52.700;7.306;2023-07-13T01:00:37;8.75;;;2.42;;
11187;SDS011;5650;52.700;7.306;2023-07-13T01:03:11;8.88;;;2.30;;
11187;SDS011;5650;52.700;7.306;2023-07-13T01:05:38;9.07;;;3.25;;
11187;SDS011;5650;52.700;7.306;2023-07-13T01:08:08;7.20;;;2.17;;
11187;SDS011;5650;52.700;7.306;2023-07-13T01:10:39;7.70;;;2.42;;
11187;SDS011;5650;52.700;7.306;2023-07-13T01:13:08;5.75;;;2.05;;
11187;SDS011;5650;52.700;7.306;2023-07-13T01:15:38;11.77;;;1.98;;
11187;SDS011;5650;52.700;7.306;2023-07-13T01:18:07;10.57;;;2.53;;
11187;SDS011;5650;52.700;7.306;2023-07-13T01:20:39;9.32;;;2.05;;
11187;SDS011;5650;52.700;7.306;2023-07-13T01:23:09;8.48;;;2.28;;
11187;SDS011;5650;52.700;7.306;2023-07-13T01:25:38;7.65;;;2.10;;
11187;SDS011;5650;52.700;7.306;2023-07-13T01:28:06;8.38;;;2.22;;
11187;SDS011;5650;52.700;7.306;2023-07-13T01:30:34;8.02;;;2.13;;
11187;SDS011;5650;52.700;7.306;2023-07-13T01:33:03;9.65;;;2.03;;
11187;SDS011;5650;52.700;7.306;2023-07-13T01:35:30;6.13;;;2.10;;
11187;SDS011;5650;52.700;7.306;2023-07-13T01:37:57;9.02;;;2.10;;
11187;SDS011;5650;52.700;7.306;2023-07-13T01:40:27;10.70;;;2.75;;
11187;SDS011;5650;52.700;7.306;2023-07-13T01:42:55;18.92;;;2.58;;
11187;SDS011;5650;52.700;7.306;2023-07-13T01:45:24;6.63;;;2.15;;
11187;SDS011;5650;52.700;7.306;2023-07-13T01:47:57;8.13;;;2.42;;
11187;SDS011;5650;52.700;7.306;2023-07-13T01:50:24;11.45;;;2.28;;
11187;SDS011;5650;52.700;7.306;2023-07-13T01:52:52;8.82;;;2.78;;
11187;SDS011;5650;52.700;7.306;2023-07-13T01:55:22;8.57;;;2.70;;
11187;SDS011;5650;52.700;7.306;2023-07-13T01:57:50;6.63;;;2.20;;
11187;SDS011;5650;52.700;7.306;2023-07-13T02:00:17;10.35;;;2.33;;
11187;SDS011;5650;52.700;7.306;2023-07-13T02:02:44;9.38;;;2.30;;
11187;SDS011;5650;52.700;7.306;2023-07-13T02:05:12;11.50;;;2.50;;
11187;SDS011;5650;52.700;7.306;2023-07-13T02:07:42;10.43;;;2.75;;
11187;SDS011;5650;52.700;7.306;2023-07-13T02:10:12;8.18;;;2.15;;
11187;SDS011;5650;52.700;7.306;2023-07-13T02:12:40;10.93;;;2.55;;
11187;SDS011;5650;52.700;7.306;2023-07-13T02:15:12;8.65;;;2.28;;
11187;SDS011;5650;52.700;7.306;2023-07-13T02:17:39;11.55;;;2.67;;
11187;SDS011;5650;52.700;7.306;2023-07-13T02:20:07;11.32;;;2.65;;
11187;SDS011;5650;52.700;7.306;2023-07-13T02:22:36;7.28;;;2.40;;
11187;SDS011;5650;52.700;7.306;2023-07-13T02:25:04;13.45;;;3.42;;
11187;SDS011;5650;52.700;7.306;2023-07-13T02:27:37;5.95;;;2.10;;
11187;SDS011;5650;52.700;7.306;2023-07-13T02:30:12;11.30;;;2.30;;
11187;SDS011;5650;52.700;7.306;2023-07-13T02:32:43;9.50;;;2.50;;
11187;SDS011;5650;52.700;7.306;2023-07-13T02:35:12;11.73;;;2.83;;
11187;SDS011;5650;52.700;7.306;2023-07-13T02:37:42;14.00;;;2.63;;
11187;SDS011;5650;52.700;7.306;2023-07-13T02:40:12;9.57;;;2.80;;
11187;SDS011;5650;52.700;7.306;2023-07-13T02:42:42;11.15;;;2.50;;
11187;SDS011;5650;52.700;7.306;2023-07-13T02:45:23;10.68;;;2.83;;
11187;SDS011;5650;52.700;7.306;2023-07-13T02:47:52;8.82;;;2.70;;
11187;SDS011;5650;52.700;7.306;2023-07-13T02:50:20;8.07;;;2.63;;
11187;SDS011;5650;52.700;7.306;2023-07-13T02:52:48;13.57;;;2.60;;
11187;SDS011;5650;52.700;7.306;2023-07-13T02:55:27;10.52;;;2.53;;
11187;SDS011;5650;52.700;7.306;2023-07-13T02:57:55;9.25;;;3.03;;
11187;SDS011;5650;52.700;7.306;2023-07-13T03:00:24;6.20;;;2.38;;
11187;SDS011;5650;52.700;7.306;2023-07-13T03:02:51;9.85;;;2.83;;
11187;SDS011;5650;52.700;7.306;2023-07-13T03:05:18;6.03;;;2.30;;
11187;SDS011;5650;52.700;7.306;2023-07-13T03:07:49;9.10;;;2.40;;
11187;SDS011;5650;52.700;7.306;2023-07-13T03:10:22;6.68;;;2.25;;
11187;SDS011;5650;52.700;7.306;2023-07-13T03:12:51;10.40;;;3.03;;
11187;SDS011;5650;52.700;7.306;2023-07-13T03:15:19;11.60;;;2.78;;
11187;SDS011;5650;52.700;7.306;2023-07-13T03:17:47;12.15;;;3.47;;
11187;SDS011;5650;52.700;7.306;2023-07-13T03:20:15;11.18;;;2.78;;
11187;SDS011;5650;52.700;7.306;2023-07-13T03:22:42;10.70;;;3.00;;
11187;SDS011;5650;52.700;7.306;2023-07-13T03:25:10;13.05;;;2.72;;
11187;SDS011;5650;52.700;7.306;2023-07-13T03:27:46;13.90;;;2.72;;
11187;SDS011;5650;52.700;7.306;2023-07-13T03:30:13;10.30;;;2.75;;
11187;SDS011;5650;52.700;7.306;2023-07-13T03:32:40;9.82;;;2.75;;
11187;SDS011;5650;52.700;7.306;2023-07-13T03:35:09;10.73;;;2.83;;
11187;SDS011;5650;52.700;7.306;2023-07-13T03:37:37;9.73;;;3.35;;
11187;SDS011;5650;52.700;7.306;2023-07-13T03:40:10;9.95;;;2.88;;
11187;SDS011;5650;52.700;7.306;2023-07-13T03:42:40;7.47;;;2.60;;
11187;SDS011;5650;52.700;7.306;2023-07-13T03:45:10;13.93;;;2.78;;
11187;SDS011;5650;52.700;7.306;2023-07-13T03:47:37;9.48;;;3.15;;
11187;SDS011;5650;52.700;7.306;2023-07-13T03:50:07;14.80;;;2.97;;
11187;SDS011;5650;52.700;7.306;2023-07-13T03:52:42;6.45;;;2.10;;
11187;SDS011;5650;52.700;7.306;2023-07-13T03:55:16;12.43;;;3.42;;
11187;SDS011;5650;52.700;7.306;2023-07-13T03:57:43;11.48;;;2.85;;
11187;SDS011;5650;52.700;7.306;2023-07-13T04:00:18;13.43;;;2.92;;
11187;SDS011;5650;52.700;7.306;2023-07-13T04:02:46;8.75;;;2.38;;
11187;SDS011;5650;52.700;7.306;2023-07-13T04:07:43;12.05;;;2.67;;
11187;SDS011;5650;52.700;7.306;2023-07-13T04:10:11;10.57;;;3.00;;
11187;SDS011;5650;52.700;7.306;2023-07-13T04:12:41;10.82;;;2.85;;
11187;SDS011;5650;52.700;7.306;2023-07-13T04:15:08;11.93;;;3.33;;
11187;SDS011;5650;52.700;7.306;2023-07-13T04:17:35;11.90;;;2.90;;
11187;SDS011;5650;52.700;7.306;2023-07-13T04:20:06;10.32;;;2.70;;
11187;SDS011;5650;52.700;7.306;2023-07-13T04:22:33;11.40;;;2.78;;
11187;SDS011;5650;52.700;7.306;2023-07-13T04:25:02;11.38;;;3.20;;
11187;SDS011;5650;52.700;7.306;2023-07-13T04:27:30;10.70;;;2.90;;
11187;SDS011;5650;52.700;7.306;2023-07-13T04:29:57;9.10;;;2.70;;
11187;SDS011;5650;52.700;7.306;2023-07-13T04:32:24;9.93;;;3.17;;
11187;SDS011;5650;52.700;7.306;2023-07-13T04:34:55;8.88;;;2.47;;
11187;SDS011;5650;52.700;7.306;2023-07-13T04:37:24;11.02;;;2.90;;
11187;SDS011;5650;52.700;7.306;2023-07-13T04:39:52;9.70;;;2.70;;
11187;SDS011;5650;52.700;7.306;2023-07-13T04:42:21;10.40;;;3.05;;
11187;SDS011;5650;52.700;7.306;2023-07-13T04:44:48;9.43;;;2.97;;
11187;SDS011;5650;52.700;7.306;2023-07-13T04:47:22;11.30;;;3.08;;
11187;SDS011;5650;52.700;7.306;2023-07-13T04:49:52;8.25;;;2.47;;
11187;SDS011;5650;52.700;7.306;2023-07-13T04:52:19;11.93;;;2.95;;
11187;SDS011;5650;52.700;7.306;2023-07-13T04:55:02;12.77;;;3.40;;
11187;SDS011;5650;52.700;7.306;2023-07-13T04:57:31;7.80;;;2.58;;
11187;SDS011;5650;52.700;7.306;2023-07-13T04:59:58;11.45;;;3.35;;
11187;SDS011;5650;52.700;7.306;2023-07-13T05:02:26;9.98;;;2.97;;
11187;SDS011;5650;52.700;7.306;2023-07-13T05:04:53;5.72;;;2.30;;
11187;SDS011;5650;52.700;7.306;2023-07-13T05:07:24;11.35;;;2.97;;
11187;SDS011;5650;52.700;7.306;2023-07-13T05:09:55;7.22;;;2.70;;
11187;SDS011;5650;52.700;7.306;2023-07-13T05:12:25;11.02;;;2.70;;
11187;SDS011;5650;52.700;7.306;2023-07-13T05:14:59;9.52;;;3.03;;
11187;SDS011;5650;52.700;7.306;2023-07-13T05:17:27;7.60;;;2.78;;
11187;SDS011;5650;52.700;7.306;2023-07-13T05:19:54;11.77;;;3.22;;
11187;SDS011;5650;52.700;7.306;2023-07-13T05:22:21;15.50;;;2.80;;
11187;SDS011;5650;52.700;7.306;2023-07-13T05:24:49;8.57;;;2.50;;
11187;SDS011;5650;52.700;7.306;2023-07-13T05:27:16;9.25;;;2.95;;
11187;SDS011;5650;52.700;7.306;2023-07-13T05:29:43;12.07;;;3.35;;
11187;SDS011;5650;52.700;7.306;2023-07-13T05:32:15;10.48;;;2.50;;
11187;SDS011;5650;52.700;7.306;2023-07-13T05:34:44;10.82;;;2.67;;
11187;SDS011;5650;52.700;7.306;2023-07-13T05:37:11;10.35;;;2.47;;
11187;SDS011;5650;52.700;7.306;2023-07-13T05:39:38;7.05;;;2.25;;
11187;SDS011;5650;52.700;7.306;2023-07-13T05:42:08;10.35;;;2.55;;
11187;SDS011;5650;52.700;7.306;2023-07-13T05:44:35;9.98;;;2.70;;
11187;SDS011;5650;52.700;7.306;2023-07-13T05:47:10;9.30;;;2.50;;
11187;SDS011;5650;52.700;7.306;2023-07-13T05:49:40;7.65;;;2.60;;
11187;SDS011;5650;52.700;7.306;2023-07-13T05:52:07;7.75;;;2.42;;
11187;SDS011;5650;52.700;7.306;2023-07-13T05:54:35;11.30;;;2.67;;
11187;SDS011;5650;52.700;7.306;2023-07-13T05:57:02;9.25;;;2.80;;
11187;SDS011;5650;52.700;7.306;2023-07-13T05:59:30;8.68;;;2.90;;
11187;SDS011;5650;52.700;7.306;2023-07-13T06:01:57;11.20;;;2.90;;
11187;SDS011;5650;52.700;7.306;2023-07-13T06:04:24;10.13;;;2.45;;
11187;SDS011;5650;52.700;7.306;2023-07-13T06:06:53;6.38;;;2.10;;
11187;SDS011;5650;52.700;7.306;2023-07-13T06:09:20;13.43;;;2.75;;
11187;SDS011;5650;52.700;7.306;2023-07-13T06:11:47;9.40;;;2.22;;
11187;SDS011;5650;52.700;7.306;2023-07-13T06:14:14;9.00;;;2.85;;
11187;SDS011;5650;52.700;7.306;2023-07-13T06:16:47;12.93;;;2.72;;
11187;SDS011;5650;52.700;7.306;2023-07-13T06:19:15;10.93;;;3.15;;
11187;SDS011;5650;52.700;7.306;2023-07-13T06:21:42;9.75;;;2.58;;
11187;SDS011;5650;52.700;7.306;2023-07-13T06:24:17;9.35;;;2.65;;
11187;SDS011;5650;52.700;7.306;2023-07-13T06:26:44;8.52;;;2.28;;
11187;SDS011;5650;52.700;7.306;2023-07-13T06:29:11;7.32;;;2.50;;
11187;SDS011;5650;52.700;7.306;2023-07-13T06:31:38;9.50;;;2.55;;
11187;SDS011;5650;52.700;7.306;2023-07-13T06:34:05;12.02;;;2.60;;
11187;SDS011;5650;52.700;7.306;2023-07-13T06:36:41;13.15;;;3.08;;
11187;SDS011;5650;52.700;7.306;2023-07-13T06:39:11;6.65;;;2.45;;
11187;SDS011;5650;52.700;7.306;2023-07-13T06:41:40;8.80;;;2.53;;
11187;SDS011;5650;52.700;7.306;2023-07-13T06:44:07;10.40;;;2.70;;
11187;SDS011;5650;52.700;7.306;2023-07-13T06:46:48;9.25;;;2.30;;
11187;SDS011;5650;52.700;7.306;2023-07-13T06:49:15;7.13;;;2.38;;
11187;SDS011;5650;52.700;7.306;2023-07-13T06:51:42;7.78;;;2.40;;
11187;SDS011;5650;52.700;7.306;2023-07-13T06:54:12;12.35;;;2.60;;
11187;SDS011;5650;52.700;7.306;2023-07-13T06:56:41;10.43;;;2.95;;
11187;SDS011;5650;52.700;7.306;2023-07-13T06:59:08;7.95;;;2.17;;
11187;SDS011;5650;52.700;7.306;2023-07-13T07:01:35;11.05;;;2.30;;
11187;SDS011;5650;52.700;7.306;2023-07-13T07:04:02;9.50;;;2.70;;
11187;SDS011;5650;52.700;7.306;2023-07-13T07:06:30;9.57;;;2.65;;
11187;SDS011;5650;52.700;7.306;2023-07-13T07:09:03;10.68;;;2.70;;
11187;SDS011;5650;52.700;7.306;2023-07-13T07:11:30;8.77;;;2.50;;
11187;SDS011;5650;52.700;7.306;2023-07-13T07:13:58;7.53;;;2.50;;
11187;SDS011;5650;52.700;7.306;2023-07-13T07:16:25;8.85;;;2.08;;
11187;SDS011;5650;52.700;7.306;2023-07-13T07:18:55;8.38;;;2.50;;
11187;SDS011;5650;52.700;7.306;2023-07-13T07:21:23;7.88;;;2.20;;
11187;SDS011;5650;52.700;7.306;2023-07-13T07:23:51;7.07;;;2.42;;
11187;SDS011;5650;52.700;7.306;2023-07-13T07:26:18;13.48;;;2.60;;
11187;SDS011;5650;52.700;7.306;2023-07-13T07:28:45;6.88;;;2.38;;
11187;SDS011;5650;52.700;7.306;2023-07-13T07:31:14;9.82;;;2.40;;
11187;SDS011;5650;52.700;7.306;2023-07-13T07:33:50;6.47;;;2.28;;
11187;SDS011;5650;52.700;7.306;2023-07-13T07:36:17;5.28;;;1.88;;
11187;SDS011;5650;52.700;7.306;2023-07-13T07:38:47;6.47;;;2.45;;
11187;SDS011;5650;52.700;7.306;2023-07-13T07:41:14;6.45;;;2.13;;
11187;SDS011;5650;52.700;7.306;2023-07-13T07:43:42;7.72;;;2.50;;
11187;SDS011;5650;52.700;7.306;2023-07-13T07:46:09;7.82;;;3.13;;
11187;SDS011;5650;52.700;7.306;2023-07-13T07:48:38;9.23;;;3.35;;
11187;SDS011;5650;52.700;7.306;2023-07-13T07:51:05;10.52;;;2.50;;
11187;SDS011;5650;52.700;7.306;2023-07-13T07:53:32;8.43;;;2.70;;
11187;SDS011;5650;52.700;7.306;2023-07-13T07:55:59;8.85;;;2.45;;
11187;SDS011;5650;52.700;7.306;2023-07-13T07:58:27;11.00;;;2.85;;
11187;SDS011;5650;52.700;7.306;2023-07-13T08:00:54;8.07;;;2.45;;
11187;SDS011;5650;52.700;7.306;2023-07-13T08:03:27;9.80;;;2.60;;
11187;SDS011;5650;52.700;7.306;2023-07-13T08:05:56;7.90;;;2.72;;
11187;SDS011;5650;52.700;7.306;2023-07-13T08:08:23;8.18;;;2.30;;
11187;SDS011;5650;52.700;7.306;2023-07-13T08:10:51;9.93;;;2.65;;
11187;SDS011;5650;52.700;7.306;2023-07-13T08:13:19;7.13;;;2.58;;
11187;SDS011;5650;52.700;7.306;2023-07-13T08:15:48;5.93;;;2.60;;
11187;SDS011;5650;52.700;7.306;2023-07-13T08:18:15;8.93;;;2.85;;
11187;SDS011;5650;52.700;7.306;2023-07-13T08:20:43;10.25;;;2.80;;
11187;SDS011;5650;52.700;7.306;2023-07-13T08:23:12;6.65;;;2.67;;
11187;SDS011;5650;52.700;7.306;2023-07-13T08:25:39;9.18;;;2.78;;
11187;SDS011;5650;52.700;7.306;2023-07-13T08:28:06;9.82;;;3.25;;
11187;SDS011;5650;52.700;7.306;2023-07-13T08:30:33;12.32;;;3.30;;
11187;SDS011;5650;52.700;7.306;2023-07-13T08:33:01;8.93;;;3.20;;
11187;SDS011;5650;52.700;7.306;2023-07-13T08:35:29;11.52;;;3.30;;
11187;SDS011;5650;52.700;7.306;2023-07-13T08:37:56;9.27;;;3.00;;
11187;SDS011;5650;52.700;7.306;2023-07-13T08:40:25;10.32;;;2.88;;
11187;SDS011;5650;52.700;7.306;2023-07-13T08:42:53;7.97;;;2.97;;
11187;SDS011;5650;52.700;7.306;2023-07-13T08:45:28;9.80;;;3.42;;
11187;SDS011;5650;52.700;7.306;2023-07-13T08:48:02;7.05;;;3.15;;
11187;SDS011;5650;52.700;7.306;2023-07-13T08:50:34;8.10;;;3.33;;
11187;SDS011;5650;52.700;7.306;2023-07-13T08:53:10;9.43;;;3.35;;
11187;SDS011;5650;52.700;7.306;2023-07-13T08:55:41;11.20;;;3.53;;
11187;SDS011;5650;52.700;7.306;2023-07-13T08:58:10;10.98;;;3.20;;
11187;SDS011;5650;52.700;7.306;2023-07-13T09:00:41;8.23;;;2.85;;
11187;SDS011;5650;52.700;7.306;2023-07-13T09:03:16;7.43;;;2.88;;
11187;SDS011;5650;52.700;7.306;2023-07-13T09:05:49;8.52;;;3.10;;
11187;SDS011;5650;52.700;7.306;2023-07-13T09:08:26;7.65;;;3.40;;
11187;SDS011;5650;52.700;7.306;2023-07-13T09:11:04;6.63;;;2.65;;
11187;SDS011;5650;52.700;7.306;2023-07-13T09:13:40;9.90;;;3.55;;
11187;SDS011;5650;52.700;7.306;2023-07-13T09:16:12;9.80;;;3.47;;
11187;SDS011;5650;52.700;7.306;2023-07-13T09:18:40;11.25;;;4.00;;
11187;SDS011;5650;52.700;7.306;2023-07-13T09:21:11;10.57;;;3.40;;
11187;SDS011;5650;52.700;7.306;2023-07-13T09:23:43;12.23;;;3.38;;
11187;SDS011;5650;52.700;7.306;2023-07-13T09:26:12;9.35;;;3.88;;
11187;SDS011;5650;52.700;7.306;2023-07-13T09:28:43;11.20;;;3.88;;
11187;SDS011;5650;52.700;7.306;2023-07-13T09:31:13;12.25;;;4.00;;
11187;SDS011;5650;52.700;7.306;2023-07-13T09:33:42;10.38;;;3.92;;
11187;SDS011;5650;52.700;7.306;2023-07-13T09:36:20;10.35;;;3.78;;
11187;SDS011;5650;52.700;7.306;2023-07-13T09:38:53;11.57;;;3.35;;
11187;SDS011;5650;52.700;7.306;2023-07-13T09:41:28;11.13;;;3.80;;
11187;SDS011;5650;52.700;7.306;2023-07-13T09:44:07;10.60;;;3.65;;
11187;SDS011;5650;52.700;7.306;2023-07-13T09:46:36;7.88;;;3.08;;
11187;SDS011;5650;52.700;7.306;2023-07-13T09:49:04;7.82;;;3.20;;
11187;SDS011;5650;52.700;7.306;2023-07-13T09:51:31;10.02;;;4.13;;
11187;SDS011;5650;52.700;7.306;2023-07-13T09:53:58;12.43;;;4.00;;
11187;SDS011;5650;52.700;7.306;2023-07-13T09:56:29;9.60;;;3.42;;
11187;SDS011;5650;52.700;7.306;2023-07-13T09:58:57;11.05;;;3.38;;
11187;SDS011;5650;52.700;7.306;2023-07-13T10:01:31;11.52;;;3.70;;
11187;SDS011;5650;52.700;7.306;2023-07-13T10:04:00;10.10;;;3.88;;
11187;SDS011;5650;52.700;7.306;2023-07-13T10:06:28;12.00;;;2.55;;
11187;SDS011;5650;52.700;7.306;2023-07-13T10:08:56;8.88;;;1.88;;
11187;SDS011;5650;52.700;7.306;2023-07-13T10:11:24;5.88;;;2.03;;
11187;SDS011;5650;52.700;7.306;2023-07-13T10:13:56;8.32;;;2.20;;
11187;SDS011;5650;52.700;7.306;2023-07-13T10:16:25;4.03;;;1.63;;
11187;SDS011;5650;52.700;7.306;2023-07-13T10:18:59;3.78;;;1.30;;
11187;SDS011;5650;52.700;7.306;2023-07-13T10:21:30;2.83;;;1.10;;
11187;SDS011;5650;52.700;7.306;2023-07-13T10:24:03;3.80;;;1.70;;
11187;SDS011;5650;52.700;7.306;2023-07-13T10:26:45;6.03;;;1.50;;
11187;SDS011;5650;52.700;7.306;2023-07-13T10:29:16;2.83;;;1.50;;
11187;SDS011;5650;52.700;7.306;2023-07-13T10:31:46;3.38;;;1.48;;
11187;SDS011;5650;52.700;7.306;2023-07-13T10:34:13;3.33;;;0.98;;
11187;SDS011;5650;52.700;7.306;2023-07-13T10:36:42;1.80;;;1.10;;
11187;SDS011;5650;52.700;7.306;2023-07-13T10:39:13;3.03;;;1.17;;
11187;SDS011;5650;52.700;7.306;2023-07-13T10:41:44;5.05;;;1.10;;
11187;SDS011;5650;52.700;7.306;2023-07-13T10:44:18;1.40;;;1.25;;
11187;SDS011;5650;52.700;7.306;2023-07-13T10:46:50;1.77;;;1.10;;
11187;SDS011;5650;52.700;7.306;2023-07-13T10:49:20;2.78;;;1.35;;
11187;SDS011;5650;52.700;7.306;2023-07-13T10:51:48;3.45;;;1.13;;
11187;SDS011;5650;52.700;7.306;2023-07-13T10:54:18;1.92;;;1.25;;
11187;SDS011;5650;52.700;7.306;2023-07-13T10:56:52;1.67;;;1.02;;
11187;SDS011;5650;52.700;7.306;2023-07-13T10:59:34;1.50;;;1.20;;
11187;SDS011;5650;52.700;7.306;2023-07-13T11:02:08;2.15;;;1.23;;
11187;SDS011;5650;52.700;7.306;2023-07-13T11:04:41;1.50;;;1.10;;
11187;SDS011;5650;52.700;7.306;2023-07-13T11:07:16;3.72;;;1.40;;
11187;SDS011;5650;52.700;7.306;2023-07-13T11:09:49;2.70;;;1.30;;
11187;SDS011;5650;52.700;7.306;2023-07-13T11:15:42;5.28;;;1.30;;
11187;SDS011;5650;52.700;7.306;2023-07-13T11:18:19;2.45;;;1.40;;
11187;SDS011;5650;52.700;7.306;2023-07-13T11:20:48;1.20;;;1.10;;
11187;SDS011;5650;52.700;7.306;2023-07-13T11:29:07;1.83;;;1.20;;
11187;SDS011;5650;52.700;7.306;2023-07-13T11:31:37;2.28;;;1.35;;
11187;SDS011;5650;52.700;7.306;2023-07-13T11:34:10;2.53;;;1.42;;
11187;SDS011;5650;52.700;7.306;2023-07-13T11:36:42;5.03;;;1.80;;
11187;SDS011;5650;52.700;7.306;2023-07-13T11:39:13;3.13;;;1.75;;
11187;SDS011;5650;52.700;7.306;2023-07-13T11:41:45;5.85;;;1.75;;
11187;SDS011;5650;52.700;7.306;2023-07-13T11:44:16;3.35;;;1.63;;
11187;SDS011;5650;52.700;7.306;2023-07-13T11:46:48;3.33;;;2.20;;
11187;SDS011;5650;52.700;7.306;2023-07-13T11:49:17;3.03;;;1.90;;
11187;SDS011;5650;52.700;7.306;2023-07-13T11:51:46;5.15;;;2.55;;
11187;SDS011;5650;52.700;7.306;2023-07-13T11:54:22;6.55;;;3.15;;
11187;SDS011;5650;52.700;7.306;2023-07-13T11:56:51;6.00;;;3.05;;
11187;SDS011;5650;52.700;7.306;2023-07-13T11:59:20;8.20;;;3.75;;
11187;SDS011;5650;52.700;7.306;2023-07-13T12:01:51;5.65;;;2.95;;
11187;SDS011;5650;52.700;7.306;2023-07-13T12:04:21;9.45;;;3.88;;
11187;SDS011;5650;52.700;7.306;2023-07-13T12:06:55;8.45;;;3.92;;
11187;SDS011;5650;52.700;7.306;2023-07-13T12:09:25;6.72;;;2.92;;
11187;SDS011;5650;52.700;7.306;2023-07-13T12:11:56;4.35;;;2.95;;
11187;SDS011;5650;52.700;7.306;2023-07-13T12:14:25;4.72;;;2.50;;
11187;SDS011;5650;52.700;7.306;2023-07-13T12:16:54;3.03;;;2.10;;
11187;SDS011;5650;52.700;7.306;2023-07-13T12:19:23;2.40;;;1.73;;
11187;SDS011;5650;52.700;7.306;2023-07-13T12:21:54;3.17;;;2.05;;
11187;SDS011;5650;52.700;7.306;2023-07-13T12:24:23;3.90;;;2.22;;
11187;SDS011;5650;52.700;7.306;2023-07-13T12:26:52;4.07;;;2.25;;
11187;SDS011;5650;52.700;7.306;2023-07-13T12:29:21;5.75;;;2.25;;
11187;SDS011;5650;52.700;7.306;2023-07-13T12:31:48;6.25;;;2.20;;
11187;SDS011;5650;52.700;7.306;2023-07-13T12:34:19;5.65;;;2.63;;
11187;SDS011;5650;52.700;7.306;2023-07-13T12:36:48;3.47;;;2.20;;
11187;SDS011;5650;52.700;7.306;2023-07-13T12:39:19;5.50;;;2.20;;
11187;SDS011;5650;52.700;7.306;2023-07-13T12:41:49;16.75;;;2.72;;
11187;SDS011;5650;52.700;7.306;2023-07-13T12:44:18;6.65;;;2.00;;
11187;SDS011;5650;52.700;7.306;2023-07-13T12:46:53;3.88;;;2.05;;
11187;SDS011;5650;52.700;7.306;2023-07-13T12:49:28;6.43;;;2.03;;
11187;SDS011;5650;52.700;7.306;2023-07-13T12:52:00;2.92;;;1.80;;
11187;SDS011;5650;52.700;7.306;2023-07-13T12:54:29;3.70;;;2.00;;
11187;SDS011;5650;52.700;7.306;2023-07-13T12:56:58;5.55;;;1.95;;
11187;SDS011;5650;52.700;7.306;2023-07-13T12:59:29;4.28;;;2.20;;
11187;SDS011;5650;52.700;7.306;2023-07-13T13:02:01;5.38;;;2.38;;
11187;SDS011;5650;52.700;7.306;2023-07-13T13:04:44;4.97;;;2.40;;
11187;SDS011;5650;52.700;7.306;2023-07-13T13:07:12;8.30;;;2.38;;
11187;SDS011;5650;52.700;7.306;2023-07-13T13:09:40;4.88;;;2.03;;
11187;SDS011;5650;52.700;7.306;2023-07-13T13:12:07;6.85;;;2.60;;
11187;SDS011;5650;52.700;7.306;2023-07-13T13:14:35;5.07;;;2.50;;
11187;SDS011;5650;52.700;7.306;2023-07-13T13:17:04;6.20;;;2.13;;
11187;SDS011;5650;52.700;7.306;2023-07-13T13:19:46;6.13;;;2.40;;
11187;SDS011;5650;52.700;7.306;2023-07-13T13:22:15;10.10;;;2.17;;
11187;SDS011;5650;52.700;7.306;2023-07-13T13:24:42;5.53;;;2.08;;
11187;SDS011;5650;52.700;7.306;2023-07-13T13:27:13;7.03;;;2.28;;
11187;SDS011;5650;52.700;7.306;2023-07-13T13:29:43;5.47;;;1.83;;
11187;SDS011;5650;52.700;7.306;2023-07-13T13:32:11;8.50;;;2.28;;
11187;SDS011;5650;52.700;7.306;2023-07-13T13:34:39;5.35;;;2.05;;
11187;SDS011;5650;52.700;7.306;2023-07-13T13:37:11;4.85;;;2.22;;
11187;SDS011;5650;52.700;7.306;2023-07-13T13:39:44;4.75;;;2.30;;
11187;SDS011;5650;52.700;7.306;2023-07-13T13:42:12;7.38;;;2.25;;
11187;SDS011;5650;52.700;7.306;2023-07-13T13:44:39;9.98;;;2.10;;
11187;SDS011;5650;52.700;7.306;2023-07-13T13:47:12;4.35;;;2.10;;
11187;SDS011;5650;52.700;7.306;2023-07-13T13:49:54;4.85;;;1.98;;
11187;SDS011;5650;52.700;7.306;2023-07-13T13:52:23;5.28;;;2.15;;
11187;SDS011;5650;52.700;7.306;2023-07-13T13:54:51;4.25;;;1.40;;
11187;SDS011;5650;52.700;7.306;2023-07-13T13:57:21;4.38;;;1.58;;
11187;SDS011;5650;52.700;7.306;2023-07-13T13:59:49;9.27;;;1.92;;
11187;SDS011;5650;52.700;7.306;2023-07-13T14:02:22;9.25;;;2.45;;
11187;SDS011;5650;52.700;7.306;2023-07-13T14:04:53;4.55;;;1.77;;
11187;SDS011;5650;52.700;7.306;2023-07-13T14:07:24;5.60;;;1.80;;
11187;SDS011;5650;52.700;7.306;2023-07-13T14:09:52;6.60;;;2.00;;
11187;SDS011;5650;52.700;7.306;2023-07-13T14:12:20;10.48;;;1.98;;
11187;SDS011;5650;52.700;7.306;2023-07-13T14:14:49;5.00;;;2.05;;
11187;SDS011;5650;52.700;7.306;2023-07-13T14:17:18;11.60;;;2.33;;
11187;SDS011;5650;52.700;7.306;2023-07-13T14:19:48;5.00;;;2.00;;
11187;SDS011;5650;52.700;7.306;2023-07-13T14:22:21;8.95;;;3.13;;
11187;SDS011;5650;52.700;7.306;2023-07-13T14:24:51;5.40;;;2.30;;
11187;SDS011;5650;52.700;7.306;2023-07-13T14:27:20;5.85;;;2.40;;
11187;SDS011;5650;52.700;7.306;2023-07-13T14:29:47;4.93;;;2.30;;
11187;SDS011;5650;52.700;7.306;2023-07-13T14:32:14;12.10;;;2.45;;
11187;SDS011;5650;52.700;7.306;2023-07-13T14:34:41;3.55;;;2.10;;
11187;SDS011;5650;52.700;7.306;2023-07-13T14:37:11;7.90;;;2.00;;
11187;SDS011;5650;52.700;7.306;2023-07-13T14:39:43;5.07;;;2.47;;
11187;SDS011;5650;52.700;7.306;2023-07-13T14:42:10;6.93;;;2.72;;
11187;SDS011;5650;52.700;7.306;2023-07-13T14:44:38;4.57;;;2.53;;
11187;SDS011;5650;52.700;7.306;2023-07-13T14:47:06;6.65;;;2.33;;
11187;SDS011;5650;52.700;7.306;2023-07-13T14:49:34;7.10;;;2.17;;
11187;SDS011;5650;52.700;7.306;2023-07-13T14:52:05;6.15;;;2.20;;
11187;SDS011;5650;52.700;7.306;2023-07-13T14:54:37;4.35;;;2.30;;
11187;SDS011;5650;52.700;7.306;2023-07-13T14:57:10;3.85;;;2.17;;
11187;SDS011;5650;52.700;7.306;2023-07-13T14:59:38;7.05;;;2.53;;
11187;SDS011;5650;52.700;7.306;2023-07-13T15:02:16;6.30;;;1.83;;
11187;SDS011;5650;52.700;7.306;2023-07-13T15:04:47;5.90;;;2.55;;
11187;SDS011;5650;52.700;7.306;2023-07-13T15:07:15;5.43;;;2.30;;
11187;SDS011;5650;52.700;7.306;2023-07-13T15:09:44;4.22;;;2.40;;
11187;SDS011;5650;52.700;7.306;2023-07-13T15:12:13;6.15;;;2.45;;
11187;SDS011;5650;52.700;7.306;2023-07-13T15:14:40;5.55;;;2.17;;
11187;SDS011;5650;52.700;7.306;2023-07-13T15:17:16;4.15;;;2.13;;
11187;SDS011;5650;52.700;7.306;2023-07-13T15:19:52;8.38;;;2.70;;
11187;SDS011;5650;52.700;7.306;2023-07-13T15:22:21;4.88;;;2.00;;
11187;SDS011;5650;52.700;7.306;2023-07-13T15:24:48;4.47;;;1.90;;
11187;SDS011;5650;52.700;7.306;2023-07-13T15:27:17;7.53;;;1.95;;
11187;SDS011;5650;52.700;7.306;2023-07-13T15:29:44;2.85;;;1.55;;